createdAt,value
2022-08-24T00:01:16.755Z,0.50
2022-08-24T00:03:46.084Z,0.65
2022-08-24T00:06:20.053Z,0.80
2022-08-24T00:08:51.863Z,0.73
2022-08-24T00:11:20.096Z,0.90
2022-08-24T00:13:47.550Z,0.90
2022-08-24T00:16:16.194Z,0.98
2022-08-24T00:18:45.935Z,0.80
2022-08-24T00:21:13.224Z,0.73
2022-08-24T00:23:41.528Z,0.80
2022-08-24T00:26:08.802Z,0.77
2022-08-24T00:28:36.518Z,0.50
2022-08-24T00:31:04.599Z,0.60
2022-08-24T00:33:35.018Z,0.50
2022-08-24T00:36:02.751Z,0.80
2022-08-24T00:38:35.771Z,0.93
2022-08-24T00:41:04.854Z,0.70
2022-08-24T00:43:33.243Z,0.80
2022-08-24T00:46:21.969Z,1.08
2022-08-24T00:48:54.481Z,1.00
2022-08-24T00:51:30.495Z,0.80
2022-08-24T00:54:04.987Z,0.80
2022-08-24T00:56:39.447Z,0.60
2022-08-24T00:59:12.528Z,0.70
2022-08-24T01:01:40.239Z,0.60
2022-08-24T01:04:10.433Z,0.93
2022-08-24T01:06:37.630Z,0.57
2022-08-24T01:09:06.870Z,0.52
2022-08-24T01:11:34.518Z,0.60
2022-08-24T01:14:03.241Z,0.80
2022-08-24T01:16:49.219Z,0.70
2022-08-24T01:19:46.157Z,1.02
2022-08-24T01:22:47.942Z,0.82
2022-08-24T01:25:14.991Z,1.13
2022-08-24T01:27:43.468Z,1.10
2022-08-24T01:30:13.915Z,1.00
2022-08-24T01:32:42.328Z,1.00
2022-08-24T01:35:10.026Z,0.90
2022-08-24T01:37:37.322Z,0.70
2022-08-24T01:40:08.329Z,0.80
2022-08-24T01:42:35.896Z,0.70
2022-08-24T01:45:04.970Z,0.60
2022-08-24T01:47:31.979Z,0.60
2022-08-24T01:49:59.056Z,0.80
2022-08-24T01:52:35.109Z,1.13
2022-08-24T01:55:14.755Z,0.80
2022-08-24T01:57:46.137Z,1.02
2022-08-24T02:00:15.348Z,1.10
2022-08-24T02:02:44.677Z,1.00
2022-08-24T02:05:15.355Z,0.90
2022-08-24T02:07:42.804Z,0.80
2022-08-24T02:10:11.678Z,0.98
2022-08-24T02:12:40.803Z,0.77
2022-08-24T02:15:09.669Z,1.13
2022-08-24T02:17:37.644Z,0.98
2022-08-24T02:20:06.656Z,1.20
2022-08-24T02:22:33.983Z,1.55
2022-08-24T02:25:01.335Z,1.13
2022-08-24T02:27:28.582Z,0.82
2022-08-24T02:29:55.631Z,1.00
2022-08-24T02:32:22.693Z,0.90
2022-08-24T02:34:49.919Z,0.75
2022-08-24T02:37:24.901Z,0.65
2022-08-24T02:39:52.660Z,0.98
2022-08-24T02:42:19.895Z,1.10
2022-08-24T02:44:46.872Z,1.00
2022-08-24T02:47:17.782Z,1.00
2022-08-24T02:49:45.119Z,0.80
2022-08-24T02:52:12.391Z,0.85
2022-08-24T02:54:39.847Z,0.60
2022-08-24T02:57:07.056Z,0.60
2022-08-24T02:59:34.553Z,0.80
2022-08-24T03:02:01.735Z,0.60
2022-08-24T03:04:29.340Z,0.70
2022-08-24T03:06:56.396Z,0.70
2022-08-24T03:09:23.703Z,0.70
2022-08-24T03:11:50.904Z,0.50
2022-08-24T03:14:18.841Z,0.70
2022-08-24T03:16:46.078Z,0.90
2022-08-24T03:19:13.810Z,0.80
2022-08-24T03:21:41.832Z,0.77
2022-08-24T03:24:09.084Z,0.93
2022-08-24T03:26:36.270Z,0.90
2022-08-24T03:29:03.258Z,0.90
2022-08-24T03:31:30.234Z,0.70
2022-08-24T03:33:57.511Z,0.80
2022-08-24T03:36:24.881Z,0.80
2022-08-24T03:38:51.806Z,0.93
2022-08-24T03:41:18.824Z,0.80
2022-08-24T03:43:46.408Z,0.65
2022-08-24T03:46:22.500Z,0.70
2022-08-24T03:48:52.905Z,0.90
2022-08-24T03:51:24.810Z,0.70
2022-08-24T03:53:53.370Z,0.82
2022-08-24T03:56:20.888Z,0.90
2022-08-24T03:58:48.140Z,0.57
2022-08-24T04:01:17.712Z,0.80
2022-08-24T04:03:47.434Z,0.90
2022-08-24T04:06:19.186Z,0.80
2022-08-24T04:08:46.572Z,0.70
2022-08-24T04:11:20.390Z,0.70
2022-08-24T04:13:48.315Z,0.80
2022-08-24T04:16:17.751Z,0.63
2022-08-24T04:18:45.250Z,0.65
2022-08-24T04:21:21.016Z,0.85
2022-08-24T04:23:49.340Z,0.70
2022-08-24T04:26:32.370Z,0.80
2022-08-24T04:29:09.560Z,0.85
2022-08-24T04:31:38.432Z,0.70
2022-08-24T04:34:07.073Z,0.70
2022-08-24T04:36:34.869Z,0.70
2022-08-24T04:39:03.248Z,0.60
2022-08-24T04:41:31.514Z,0.80
2022-08-24T04:43:59.937Z,0.70
2022-08-24T04:46:28.104Z,0.90
2022-08-24T04:48:55.447Z,0.60
2022-08-24T04:51:22.727Z,0.70
2022-08-24T04:53:50.806Z,0.60
2022-08-24T04:56:21.271Z,0.70
2022-08-24T04:58:48.644Z,0.70
2022-08-24T05:01:19.879Z,0.60
2022-08-24T05:03:52.111Z,0.70
2022-08-24T05:06:21.648Z,0.60
2022-08-24T05:08:49.629Z,0.70
2022-08-24T05:11:18.950Z,0.77
2022-08-24T05:13:46.254Z,0.70
2022-08-24T05:16:18.068Z,0.63
2022-08-24T05:18:46.084Z,0.60
2022-08-24T05:21:16.377Z,0.60
2022-08-24T05:23:45.080Z,0.60
2022-08-24T05:26:16.158Z,0.60
2022-08-24T05:28:43.958Z,0.60
2022-08-24T05:31:20.048Z,1.15
2022-08-24T05:33:48.629Z,0.70
2022-08-24T05:36:25.967Z,0.70
2022-08-24T05:38:55.785Z,0.70
2022-08-24T05:41:25.149Z,0.50
2022-08-24T05:43:52.775Z,0.50
2022-08-24T05:46:22.034Z,0.43
2022-08-24T05:48:53.343Z,0.47
2022-08-24T05:51:21.041Z,0.35
2022-08-24T05:53:48.410Z,0.40
2022-08-24T05:56:20.159Z,0.40
2022-08-24T05:58:48.175Z,0.50
2022-08-24T06:01:26.836Z,0.70
2022-08-24T06:03:55.679Z,0.40
2022-08-24T06:06:24.045Z,0.50
2022-08-24T06:08:55.133Z,0.50
2022-08-24T06:11:30.146Z,0.40
2022-08-24T06:14:07.389Z,0.40
2022-08-24T06:16:36.537Z,0.50
2022-08-24T06:19:04.322Z,0.60
2022-08-24T06:21:32.811Z,0.50
2022-08-24T06:24:03.050Z,0.47
2022-08-24T06:26:52.568Z,0.52
2022-08-24T06:29:20.701Z,0.52
2022-08-24T06:31:54.428Z,0.40
2022-08-24T06:34:24.060Z,0.40
2022-08-24T06:36:51.003Z,0.52
2022-08-24T06:39:19.014Z,0.50
2022-08-24T06:41:46.206Z,0.50
2022-08-24T06:44:13.112Z,0.50
2022-08-24T06:46:40.621Z,0.30
2022-08-24T06:49:08.096Z,0.43
2022-08-24T06:51:35.335Z,0.50
2022-08-24T06:54:02.395Z,0.35
2022-08-24T06:56:29.467Z,0.40
2022-08-24T06:58:56.494Z,0.50
2022-08-24T07:01:25.968Z,0.50
2022-08-24T07:03:53.975Z,0.40
2022-08-24T07:06:22.193Z,0.70
2022-08-24T07:08:49.332Z,0.70
2022-08-24T07:11:18.169Z,0.60
2022-08-24T07:13:49.594Z,0.50
2022-08-24T07:16:18.599Z,0.45
2022-08-24T07:18:49.398Z,0.43
2022-08-24T07:21:19.748Z,0.60
2022-08-24T07:23:51.281Z,0.70
2022-08-24T07:26:22.709Z,1.00
2022-08-24T07:28:55.481Z,0.68
2022-08-24T07:31:22.527Z,0.75
2022-08-24T07:33:49.528Z,1.40
2022-08-24T07:36:21.926Z,0.85
2022-08-24T07:38:52.378Z,1.13
2022-08-24T07:41:47.004Z,0.90
2022-08-24T07:44:09.348Z,0.80
2022-08-24T07:46:38.010Z,0.60
2022-08-24T07:49:12.472Z,0.52
2022-08-24T07:51:48.632Z,0.70
2022-08-24T07:54:16.156Z,0.60
2022-08-24T07:56:43.461Z,0.90
2022-08-24T07:59:13.315Z,0.88
2022-08-24T08:01:42.502Z,0.70
2022-08-24T08:04:10.394Z,1.27
2022-08-24T08:06:37.499Z,0.90
2022-08-24T08:09:05.653Z,0.85
2022-08-24T08:11:32.899Z,0.80
2022-08-24T08:14:00.506Z,0.63
2022-08-24T08:16:27.913Z,0.75
2022-08-24T08:19:11.697Z,0.90
2022-08-24T08:22:06.472Z,0.90
2022-08-24T08:24:33.805Z,0.70
2022-08-24T08:27:00.977Z,0.80
2022-08-24T08:29:28.485Z,0.70
2022-08-24T08:31:56.078Z,0.88
2022-08-24T08:34:23.556Z,1.23
2022-08-24T08:36:51.137Z,1.13
2022-08-24T08:39:20.958Z,0.80
2022-08-24T08:42:40.503Z,0.80
2022-08-24T08:45:27.207Z,1.00
2022-08-24T08:48:24.639Z,1.20
2022-08-24T08:51:25.578Z,1.10
2022-08-24T08:54:18.426Z,1.13
2022-08-24T08:57:33.032Z,0.80
2022-08-24T09:00:25.078Z,0.95
2022-08-24T09:03:27.031Z,1.00
2022-08-24T09:06:25.493Z,0.95
2022-08-24T09:08:58.260Z,0.85
2022-08-24T09:11:46.069Z,1.42
2022-08-24T09:14:43.599Z,1.30
2022-08-24T09:17:55.460Z,1.10
2022-08-24T09:21:01.294Z,1.00
2022-08-24T09:23:46.539Z,0.90
2022-08-24T09:26:29.550Z,1.10
2022-08-24T09:29:10.258Z,1.55
2022-08-24T09:31:52.737Z,1.23
2022-08-24T09:34:25.914Z,0.98
2022-08-24T09:37:30.701Z,1.20
2022-08-24T09:40:17.537Z,1.35
2022-08-24T09:43:00.671Z,1.10
2022-08-24T09:45:52.659Z,1.63
2022-08-24T09:48:49.274Z,1.17
2022-08-24T09:51:22.821Z,1.13
2022-08-24T09:54:05.274Z,1.00
2022-08-24T09:56:47.806Z,0.95
2022-08-24T09:59:33.484Z,1.17
2022-08-24T10:02:13.249Z,1.20
2022-08-24T10:04:51.347Z,1.30
2022-08-24T10:07:27.550Z,1.40
2022-08-24T10:10:02.608Z,1.23
2022-08-24T10:12:42.639Z,1.20
2022-08-24T10:15:46.258Z,1.67
2022-08-24T10:18:51.689Z,1.25
2022-08-24T10:21:45.585Z,1.27
2022-08-24T10:24:47.409Z,1.30
2022-08-24T10:27:37.265Z,1.10
2022-08-24T10:30:10.484Z,1.00
2022-08-24T10:32:46.863Z,0.80
2022-08-24T10:35:40.015Z,0.82
2022-08-24T10:39:01.138Z,0.85
2022-08-24T10:41:55.633Z,1.20
2022-08-24T10:44:56.576Z,1.30
2022-08-24T10:47:31.326Z,1.20
2022-08-24T10:50:44.130Z,1.00
2022-08-24T10:53:17.855Z,1.30
2022-08-24T10:55:45.428Z,1.30
2022-08-24T10:58:15.507Z,1.00
2022-08-24T11:00:43.193Z,1.70
2022-08-24T11:03:27.967Z,1.27
2022-08-24T11:05:57.473Z,1.17
2022-08-24T11:08:28.586Z,0.88
2022-08-24T11:11:29.174Z,1.00
2022-08-24T11:14:18.087Z,1.13
2022-08-24T11:16:55.726Z,1.45
2022-08-24T11:19:28.739Z,1.20
2022-08-24T11:22:17.553Z,1.58
2022-08-24T11:24:46.808Z,0.80
2022-08-24T11:27:16.782Z,1.05
2022-08-24T11:29:52.878Z,1.17
2022-08-24T11:32:25.862Z,1.00
2022-08-24T11:34:52.820Z,1.10
2022-08-24T11:37:29.167Z,1.20
2022-08-24T11:39:57.827Z,0.93
2022-08-24T11:42:39.733Z,1.05
2022-08-24T11:45:25.139Z,1.52
2022-08-24T11:48:07.759Z,1.38
2022-08-24T11:50:56.707Z,1.40
2022-08-24T12:16:46.614Z,0.98
2022-08-24T12:19:24.597Z,1.25
2022-08-24T12:21:55.801Z,1.00
2022-08-24T12:25:00.713Z,0.90
2022-08-24T12:27:32.388Z,1.05
2022-08-24T12:30:16.538Z,1.08
2022-08-24T12:32:57.003Z,1.30
2022-08-24T12:35:34.392Z,1.00
2022-08-24T12:38:19.920Z,1.08
2022-08-24T12:41:00.203Z,1.17
2022-08-24T12:43:51.738Z,1.60
2022-08-24T12:46:23.683Z,1.30
2022-08-24T12:49:12.740Z,1.00
2022-08-24T12:51:58.347Z,1.50
2022-08-24T12:54:33.239Z,1.65
2022-08-24T12:57:28.769Z,1.40
2022-08-24T13:00:02.467Z,1.42
2022-08-24T13:02:48.210Z,1.10
2022-08-24T13:05:19.120Z,1.35
2022-08-24T13:07:49.952Z,1.60
2022-08-24T13:10:25.913Z,1.52
2022-08-24T13:13:08.623Z,1.48
2022-08-24T13:15:35.871Z,1.60
2022-08-24T13:18:09.104Z,1.20
2022-08-24T13:20:36.289Z,1.00
2022-08-24T13:23:14.019Z,1.00
2022-08-24T13:26:17.832Z,0.80
2022-08-24T13:28:48.200Z,1.00
2022-08-24T13:31:36.966Z,1.00
2022-08-24T13:34:06.633Z,1.10
2022-08-24T13:37:11.631Z,1.55
2022-08-24T13:39:54.312Z,1.30
2022-08-24T13:42:40.123Z,1.20
2022-08-24T13:45:49.814Z,1.20
2022-08-24T13:48:25.751Z,0.90
2022-08-24T13:51:20.734Z,1.52
2022-08-24T13:54:24.503Z,1.42
2022-08-24T13:57:31.154Z,1.20
2022-08-24T14:00:23.229Z,1.30
2022-08-24T14:03:01.200Z,1.10
2022-08-24T14:05:43.716Z,0.90
2022-08-24T14:08:28.768Z,0.70
2022-08-24T14:11:25.634Z,0.60
2022-08-24T14:14:01.606Z,1.10
2022-08-24T14:17:25.312Z,1.20
2022-08-24T14:20:34.801Z,1.50
2022-08-24T14:23:28.466Z,1.30
2022-08-24T14:26:33.470Z,1.10
2022-08-24T14:29:15.289Z,1.08
2022-08-24T14:32:08.689Z,0.90
2022-08-24T14:34:58.261Z,1.23
2022-08-24T14:37:56.128Z,1.38
2022-08-24T14:40:35.040Z,1.52
2022-08-24T14:43:34.748Z,0.93
2022-08-24T14:46:33.976Z,1.27
2022-08-24T14:49:33.322Z,1.00
2022-08-24T14:52:08.826Z,1.10
2022-08-24T14:55:08.729Z,1.10
2022-08-24T14:58:10.147Z,0.90
2022-08-24T15:00:56.730Z,0.80
2022-08-24T15:03:42.590Z,0.82
2022-08-24T15:06:37.014Z,1.10
2022-08-24T15:09:12.191Z,0.88
2022-08-24T15:11:41.716Z,1.10
2022-08-24T15:14:52.128Z,1.30
2022-08-24T15:17:23.015Z,0.82
2022-08-24T15:20:15.479Z,0.80
2022-08-24T15:22:58.436Z,1.00
2022-08-24T15:25:44.807Z,0.73
2022-08-24T15:28:21.482Z,0.65
2022-08-24T15:31:03.709Z,0.77
2022-08-24T15:33:31.453Z,0.90
2022-08-24T15:36:25.291Z,0.82
2022-08-24T15:38:52.665Z,0.70
2022-08-24T15:41:24.498Z,0.90
2022-08-24T15:44:24.478Z,0.85
2022-08-24T15:47:05.449Z,0.88
2022-08-24T15:49:46.114Z,0.70
2022-08-24T15:52:31.638Z,0.63
2022-08-24T15:55:01.566Z,0.70
2022-08-24T15:57:31.105Z,0.60
2022-08-24T16:00:54.464Z,0.80
2022-08-24T16:03:28.493Z,0.90
2022-08-24T16:05:56.756Z,0.85
2022-08-24T16:08:24.302Z,1.40
2022-08-24T16:10:56.741Z,0.80
2022-08-24T16:13:29.140Z,0.80
2022-08-24T16:16:05.521Z,0.80
2022-08-24T16:18:57.966Z,0.82
2022-08-24T16:21:40.354Z,0.80
2022-08-24T16:24:12.802Z,0.80
2022-08-24T16:26:45.742Z,1.00
2022-08-24T16:29:37.603Z,1.05
2022-08-24T16:32:21.206Z,1.20
2022-08-24T16:34:57.243Z,1.20
2022-08-24T16:37:25.421Z,0.90
2022-08-24T16:39:52.451Z,0.80
2022-08-24T16:42:27.010Z,1.00
2022-08-24T16:44:55.308Z,1.10
2022-08-24T16:47:22.844Z,0.90
2022-08-24T16:49:50.686Z,0.90
2022-08-24T16:52:17.761Z,0.80
2022-08-24T16:54:45.739Z,0.88
2022-08-24T17:00:32.497Z,0.70
2022-08-24T17:03:00.373Z,0.80
2022-08-24T17:05:28.046Z,0.60
2022-08-24T17:07:55.020Z,0.93
2022-08-24T17:10:23.721Z,0.90
2022-08-24T17:12:50.698Z,0.80
2022-08-24T17:15:17.735Z,1.00
2022-08-24T17:17:55.899Z,0.90
2022-08-24T17:20:22.844Z,0.85
2022-08-24T17:22:49.733Z,0.80
2022-08-24T17:25:16.678Z,0.73
2022-08-24T17:27:44.399Z,0.60
2022-08-24T17:30:11.764Z,0.77
2022-08-24T17:32:38.598Z,0.68
2022-08-24T17:35:06.521Z,0.73
2022-08-24T17:37:33.451Z,1.30
2022-08-24T17:40:01.347Z,1.80
2022-08-24T17:42:49.616Z,0.80
2022-08-24T17:45:15.281Z,0.75
2022-08-24T17:47:43.639Z,0.93
2022-08-24T17:50:13.536Z,0.77
2022-08-24T17:52:40.957Z,0.85
2022-08-24T17:55:10.374Z,0.70
2022-08-24T17:57:38.311Z,0.70
2022-08-24T18:00:08.198Z,0.82
2022-08-24T18:02:35.045Z,0.90
2022-08-24T18:05:02.999Z,0.80
2022-08-24T18:07:49.499Z,0.88
2022-08-24T18:10:22.389Z,0.80
2022-08-24T18:12:49.862Z,0.70
2022-08-24T18:15:17.211Z,0.70
2022-08-24T18:17:48.115Z,0.63
2022-08-24T18:20:19.602Z,0.60
2022-08-24T18:22:47.724Z,0.60
2022-08-24T18:25:23.437Z,0.65
2022-08-24T18:27:54.618Z,0.60
2022-08-24T18:30:30.284Z,0.50
2022-08-24T18:32:59.667Z,0.47
2022-08-24T18:35:27.278Z,0.50
2022-08-24T18:37:54.342Z,0.40
2022-08-24T18:40:32.953Z,0.38
2022-08-24T18:43:02.004Z,0.43
2022-08-24T18:45:31.908Z,0.50
2022-08-24T18:47:58.938Z,0.30
2022-08-24T18:50:28.947Z,0.40
2022-08-24T18:52:57.845Z,0.25
2022-08-24T18:55:25.696Z,0.40
2022-08-24T18:57:54.384Z,0.30
2022-08-24T19:00:21.445Z,0.20
2022-08-24T19:02:48.503Z,0.30
2022-08-24T19:05:20.198Z,0.30
2022-08-24T19:07:49.544Z,0.40
2022-08-24T19:10:20.276Z,0.40
2022-08-24T19:12:50.167Z,0.50
2022-08-24T19:15:32.336Z,0.40
2022-08-24T19:18:05.324Z,0.30
2022-08-24T19:20:33.293Z,0.40
2022-08-24T19:23:07.518Z,0.30
2022-08-24T19:25:36.031Z,0.30
2022-08-24T19:28:04.130Z,0.38
2022-08-24T19:30:31.629Z,0.30
2022-08-24T19:32:59.459Z,0.30
2022-08-24T19:35:26.545Z,0.30
2022-08-24T19:37:53.421Z,0.52
2022-08-24T19:40:23.282Z,0.20
2022-08-24T19:42:54.540Z,0.30
2022-08-24T19:45:43.723Z,0.47
2022-08-24T19:48:11.925Z,0.30
2022-08-24T19:50:39.129Z,0.30
2022-08-24T19:53:06.993Z,0.40
2022-08-24T19:55:33.976Z,0.30
2022-08-24T19:58:08.938Z,0.30
2022-08-24T20:00:46.955Z,0.30
2022-08-24T20:03:15.104Z,0.35
2022-08-24T20:05:42.061Z,0.32
2022-08-24T20:08:10.930Z,0.30
2022-08-24T20:10:38.226Z,0.40
2022-08-24T20:13:05.405Z,0.30
2022-08-24T20:15:32.915Z,0.28
2022-08-24T20:17:59.991Z,0.30
2022-08-24T20:20:28.339Z,0.30
2022-08-24T20:22:55.471Z,0.28
2022-08-24T20:25:22.406Z,0.30
2022-08-24T20:27:58.074Z,0.40
2022-08-24T20:30:36.939Z,0.32
2022-08-24T20:33:04.301Z,0.43
2022-08-24T20:35:31.385Z,0.40
2022-08-24T20:37:58.444Z,0.30
2022-08-24T20:40:26.087Z,0.45
2022-08-24T20:42:53.859Z,0.50
2022-08-24T20:45:20.977Z,0.57
2022-08-24T20:47:51.295Z,0.40
2022-08-24T20:50:23.923Z,0.50
2022-08-24T20:52:52.439Z,0.75
2022-08-24T20:55:20.412Z,0.70
2022-08-24T20:57:54.354Z,0.68
2022-08-24T21:00:25.133Z,0.80
2022-08-24T21:02:52.637Z,0.73
2022-08-24T21:05:19.509Z,0.77
2022-08-24T21:07:49.737Z,0.77
2022-08-24T21:10:24.961Z,1.10
2022-08-24T21:12:55.069Z,0.80
2022-08-24T21:15:23.337Z,0.70
2022-08-24T21:17:50.441Z,0.90
2022-08-24T21:20:18.011Z,0.90
2022-08-24T21:22:46.248Z,0.82
2022-08-24T21:25:15.092Z,1.00
2022-08-24T21:27:44.474Z,0.82
2022-08-24T21:30:16.145Z,0.70
2022-08-24T21:33:01.702Z,0.70
2022-08-24T21:35:28.676Z,1.02
2022-08-24T21:37:56.255Z,0.60
2022-08-24T21:40:23.558Z,0.60
2022-08-24T21:42:50.559Z,0.50
2022-08-24T21:45:18.993Z,0.40
2022-08-24T21:47:46.173Z,0.40
2022-08-24T21:50:14.539Z,0.50
2022-08-24T21:52:41.714Z,0.50
2022-08-24T21:55:14.178Z,0.60
2022-08-24T21:57:42.364Z,0.90
2022-08-24T22:00:15.624Z,0.70
2022-08-24T22:02:42.508Z,0.68
2022-08-24T22:05:10.363Z,0.77
2022-08-24T22:07:37.709Z,0.98
2022-08-24T22:10:07.414Z,0.50
2022-08-24T22:12:38.095Z,0.60
2022-08-24T22:15:07.255Z,0.52
2022-08-24T22:17:34.075Z,0.65
2022-08-24T22:20:01.137Z,0.45
2022-08-24T22:22:28.084Z,0.40
2022-08-24T22:24:57.910Z,0.60
2022-08-24T22:27:25.143Z,0.60
2022-08-24T22:29:53.308Z,0.50
2022-08-24T22:32:20.158Z,0.50
2022-08-24T22:34:47.099Z,0.50
2022-08-24T22:37:14.041Z,0.50
2022-08-24T22:39:40.835Z,0.60
2022-08-24T22:42:08.272Z,0.40
2022-08-24T22:44:35.236Z,0.40
2022-08-24T22:47:10.901Z,0.50
2022-08-24T22:49:43.570Z,0.50
2022-08-24T22:52:12.076Z,0.57
2022-08-24T22:54:39.513Z,0.50
2022-08-24T22:57:06.845Z,0.57
2022-08-24T22:59:39.732Z,0.50
2022-08-24T23:02:10.577Z,0.57
2022-08-24T23:04:40.855Z,0.50
2022-08-24T23:07:08.576Z,0.50
2022-08-24T23:09:44.074Z,0.40
2022-08-24T23:12:14.348Z,0.60
2022-08-24T23:14:41.763Z,0.60
2022-08-24T23:17:08.634Z,0.50
2022-08-24T23:19:54.601Z,0.60
2022-08-24T23:22:21.740Z,0.50
2022-08-24T23:24:48.792Z,0.50
2022-08-24T23:27:17.725Z,0.40
2022-08-24T23:29:46.131Z,0.40
2022-08-24T23:32:14.005Z,0.40
2022-08-24T23:34:46.175Z,0.52
2022-08-24T23:37:15.608Z,0.60
2022-08-24T23:39:43.207Z,0.60
2022-08-24T23:42:10.515Z,0.45
2022-08-24T23:44:39.055Z,0.30
2022-08-24T23:47:06.378Z,0.60
2022-08-24T23:49:35.083Z,0.63
2022-08-24T23:52:02.176Z,0.65
2022-08-24T23:54:29.288Z,0.50
2022-08-24T23:56:56.706Z,0.80
2022-08-24T23:59:29.524Z,0.70
